Time;durP1;ratioP1;P1;durP2;ratioP2;P2;SDS_P1;SDS_P2;PMS_P1;PMS_P2;Temp;Humidity;BMP_temperature;BMP_pressure;BME280_temperature;BME280_humidity;BME280_pressure;Samples;Min_cycle;Max_cycle;Signal;HPM_P1;HPM_P2
2023/09/20 00:01:03;;;;;;;;;;;;;;;22.03;48.07;98997.13;5033005;28;19917;-79
2023/09/20 00:03:30;;;;;;;;;;;;;;;22.00;47.63;98998.31;5016204;28;20020;-79
2023/09/20 00:05:56;;;;;;;;;;;;;;;22.00;47.55;98995.66;5032731;28;20300;-77
2023/09/20 00:08:21;;;;;;;;;;;;;;;22.03;47.58;98986.50;5034371;28;19924;-77
2023/09/20 00:10:46;;;;;;;;;;;;;;;22.04;47.54;98994.28;5032672;28;20011;-77
2023/09/20 00:13:12;;;;;;;;;;;;;;;22.03;47.76;98995.28;5032648;28;20286;-78
2023/09/20 00:15:40;;;;;;;;;;;;;;;22.02;47.72;98992.81;5032310;28;20398;-77
2023/09/20 00:18:06;;;;;;;;;;;;;;;22.04;47.68;98990.78;5032630;28;19917;-78
2023/09/20 00:20:32;;;;;;;;;;;;;;;22.00;47.62;98987.69;5016203;28;19940;-77
2023/09/20 00:22:58;;;;;;;;;;;;;;;21.98;47.75;98996.84;5016302;28;20411;-77
2023/09/20 00:25:23;;;;;;;;;;;;;;;21.92;48.36;98993.09;5033621;28;19917;-77
2023/09/20 00:27:48;;;;;;;;;;;;;;;21.93;48.16;98984.09;5033762;28;19917;-77
2023/09/20 00:30:15;;;;;;;;;;;;;;;21.94;47.95;98988.41;5033935;28;19921;-77
2023/09/20 00:32:41;;;;;;;;;;;;;;;21.94;48.22;98985.75;5015639;28;20020;-77
2023/09/20 00:35:12;;;;;;;;;;;;;;;21.94;48.48;98982.28;5033309;28;20193;-77
2023/09/20 00:37:41;;;;;;;;;;;;;;;21.95;48.06;98983.91;5015666;28;19917;-77
2023/09/20 00:40:15;;;;;;;;;;;;;;;21.93;47.86;98977.97;5015996;28;20435;-77
2023/09/20 00:42:40;;;;;;;;;;;;;;;21.90;47.98;98973.88;5031877;28;19925;-78
2023/09/20 00:45:06;;;;;;;;;;;;;;;21.83;47.99;98972.94;5030557;28;19972;-78
2023/09/20 00:47:32;;;;;;;;;;;;;;;21.80;48.40;98970.66;5031468;28;19928;-78
2023/09/20 00:49:57;;;;;;;;;;;;;;;21.81;48.56;98961.69;5014210;28;19925;-78
2023/09/20 00:52:24;;;;;;;;;;;;;;;21.77;48.35;98968.34;5029139;28;19917;-78
2023/09/20 00:54:49;;;;;;;;;;;;;;;21.73;48.41;98959.94;5030576;28;19917;-78
2023/09/20 00:57:14;;;;;;;;;;;;;;;21.78;48.41;98954.88;5030286;28;19970;-78
2023/09/20 00:59:40;;;;;;;;;;;;;;;21.79;48.24;98945.06;5030167;28;20319;-77
2023/09/20 01:02:06;;;;;;;;;;;;;;;21.70;48.56;98952.34;5014031;28;20289;-79
2023/09/20 01:04:31;;;;;;;;;;;;;;;21.63;48.69;98954.91;5030001;28;20314;-77
2023/09/20 01:06:56;;;;;;;;;;;;;;;21.62;48.80;98950.59;5030000;28;19921;-77
2023/09/20 01:09:22;;;;;;;;;;;;;;;21.60;49.11;98946.44;5031013;28;19921;-77
2023/09/20 01:11:47;;;;;;;;;;;;;;;21.56;49.06;98935.38;5030251;28;19918;-77
2023/09/20 01:14:13;;;;;;;;;;;;;;;21.54;49.26;98945.38;5013398;28;19921;-77
2023/09/20 01:16:38;;;;;;;;;;;;;;;21.52;49.30;98942.06;5029771;28;19948;-77
2023/09/20 01:19:04;;;;;;;;;;;;;;;21.53;49.60;98942.91;5030592;28;19917;-76
2023/09/20 01:21:30;;;;;;;;;;;;;;;21.51;49.73;98935.13;5031632;28;19921;-76
2023/09/20 01:23:55;;;;;;;;;;;;;;;21.50;49.52;98928.97;5031967;28;19991;-77
2023/09/20 01:26:20;;;;;;;;;;;;;;;21.50;49.77;98920.16;5013359;28;20400;-77
2023/09/20 01:28:46;;;;;;;;;;;;;;;21.52;49.68;98912.03;5030002;28;19956;-77
2023/09/20 01:31:11;;;;;;;;;;;;;;;21.50;49.71;98918.34;5031346;28;19921;-77
2023/09/20 01:33:38;;;;;;;;;;;;;;;21.53;49.89;98919.81;5031683;28;20016;-77
2023/09/20 01:36:06;;;;;;;;;;;;;;;21.51;49.64;98919.19;5031351;28;19924;-77
2023/09/20 01:38:32;;;;;;;;;;;;;;;21.53;49.86;98919.00;5030257;28;19978;-77
2023/09/20 01:40:58;;;;;;;;;;;;;;;21.49;49.66;98914.03;5029858;28;20378;-77
2023/09/20 01:43:24;;;;;;;;;;;;;;;21.42;49.89;98905.13;5031110;28;19924;-77
2023/09/20 01:45:49;;;;;;;;;;;;;;;21.42;50.23;98893.69;5013824;28;19917;-77
2023/09/20 01:48:15;;;;;;;;;;;;;;;21.37;50.35;98894.22;5030938;28;20308;-77
2023/09/20 01:50:44;;;;;;;;;;;;;;;21.34;50.06;98891.94;5030170;28;19978;-77
2023/09/20 01:53:10;;;;;;;;;;;;;;;21.24;50.41;98886.91;5031007;28;19917;-78
2023/09/20 01:55:42;;;;;;;;;;;;;;;21.26;50.34;98892.84;5030214;28;20015;-77
2023/09/20 01:58:07;;;;;;;;;;;;;;;21.29;50.42;98879.22;5030051;28;19925;-77
2023/09/20 02:00:36;;;;;;;;;;;;;;;21.28;50.49;98877.56;5029951;28;19974;-77
2023/09/20 02:03:05;;;;;;;;;;;;;;;21.28;50.56;98879.38;5031335;28;20372;-77
2023/09/20 02:05:31;;;;;;;;;;;;;;;21.31;50.61;98873.72;5030933;28;20317;-77
2023/09/20 02:07:57;;;;;;;;;;;;;;;21.29;50.67;98867.78;5030958;28;19933;-77
2023/09/20 02:10:23;;;;;;;;;;;;;;;21.33;50.37;98869.88;5030029;28;19917;-77
2023/09/20 02:12:51;;;;;;;;;;;;;;;21.39;50.60;98873.63;5030709;28;20440;-77
2023/09/20 02:15:17;;;;;;;;;;;;;;;21.44;50.35;98887.19;5030807;28;19921;-77
2023/09/20 02:17:43;;;;;;;;;;;;;;;21.48;50.28;98891.16;5035037;28;19917;-78
2023/09/20 02:20:09;;;;;;;;;;;;;;;21.50;50.34;98893.63;5036407;28;20285;-77
2023/09/20 02:22:36;;;;;;;;;;;;;;;21.54;50.11;98892.25;5036336;28;19917;-77
2023/09/20 02:25:04;;;;;;;;;;;;;;;21.59;50.17;98895.16;5036044;28;20377;-77
2023/09/20 02:27:30;;;;;;;;;;;;;;;21.68;50.23;98898.56;5020158;28;19975;-77
2023/09/20 02:29:56;;;;;;;;;;;;;;;21.69;50.23;98914.28;5037260;28;19921;-76
2023/09/20 02:32:21;;;;;;;;;;;;;;;21.72;50.06;98921.09;5037619;28;20020;-77
2023/09/20 02:34:46;;;;;;;;;;;;;;;21.71;50.41;98930.06;5035865;28;20415;-77
2023/09/20 02:37:12;;;;;;;;;;;;;;;21.72;50.31;98922.94;5036219;28;19924;-77
2023/09/20 02:39:37;;;;;;;;;;;;;;;21.69;50.43;98924.91;5036243;28;19968;-77
2023/09/20 02:42:02;;;;;;;;;;;;;;;21.65;50.56;98914.88;5036527;28;20000;-77
2023/09/20 02:44:28;;;;;;;;;;;;;;;21.64;50.75;98921.19;5036189;28;19925;-77
2023/09/20 02:46:53;;;;;;;;;;;;;;;21.63;50.78;98915.06;5037306;28;19917;-77
2023/09/20 02:49:20;;;;;;;;;;;;;;;21.62;50.77;98915.25;5035782;28;19941;-77
2023/09/20 02:51:47;;;;;;;;;;;;;;;21.64;50.67;98913.22;5038308;28;19928;-77
2023/09/20 02:54:13;;;;;;;;;;;;;;;21.64;50.83;98915.88;5056056;28;19924;-76
2023/09/20 02:56:39;;;;;;;;;;;;;;;21.63;50.84;98912.41;5056997;28;19916;-77
2023/09/20 02:59:07;;;;;;;;;;;;;;;21.61;50.62;98922.38;5056648;28;20000;-77
2023/09/20 03:01:33;;;;;;;;;;;;;;;21.57;50.91;98914.94;5056917;28;19924;-77
2023/09/20 03:03:58;;;;;;;;;;;;;;;21.53;50.87;98919.00;5056495;28;19916;-75
2023/09/20 03:06:23;;;;;;;;;;;;;;;21.52;50.92;98922.66;5056898;28;19917;-75
2023/09/20 03:08:49;;;;;;;;;;;;;;;21.50;51.05;98920.16;5039200;28;19917;-76
2023/09/20 03:11:25;;;;;;;;;;;;;;;21.45;50.53;98919.88;5056847;28;19925;-77
2023/09/20 03:13:50;;;;;;;;;;;;;;;21.41;50.48;98927.38;5055895;28;20455;-76
2023/09/20 03:16:19;;;;;;;;;;;;;;;21.38;50.77;98925.09;5055497;28;19970;-77
2023/09/20 03:18:45;;;;;;;;;;;;;;;21.41;50.83;98921.22;5056837;28;19920;-76
2023/09/20 03:21:10;;;;;;;;;;;;;;;21.40;50.91;98925.72;5055281;28;20362;-76
2023/09/20 03:23:37;;;;;;;;;;;;;;;21.40;50.85;98922.25;5055418;28;19924;-76
2023/09/20 03:26:03;;;;;;;;;;;;;;;21.33;50.61;98930.94;5056951;28;19920;-76
2023/09/20 03:28:28;;;;;;;;;;;;;;;21.28;50.91;98925.34;5053019;28;19921;-78
2023/09/20 03:30:55;;;;;;;;;;;;;;;21.35;51.21;98917.50;5052380;28;20020;-78
2023/09/20 03:33:21;;;;;;;;;;;;;;;21.73;51.78;98909.47;5035817;28;20366;-76
2023/09/20 03:35:47;;;;;;;;;;;;;;;22.07;50.40;98915.97;5052471;28;20015;-72
2023/09/20 03:38:14;;;;;;;;;;;;;;;22.35;50.05;98913.47;5052997;28;20316;-72
2023/09/20 03:40:41;;;;;;;;;;;;;;;22.55;49.23;98912.81;5052319;28;20388;-77
2023/09/20 03:43:08;;;;;;;;;;;;;;;22.69;48.46;98908.47;5036015;28;19917;-75
2023/09/20 03:45:33;;;;;;;;;;;;;;;22.72;48.40;98916.06;5045944;28;20779;-77
2023/09/20 03:48:01;;;;;;;;;;;;;;;22.76;48.33;98907.50;5023988;28;19917;-75
2023/09/20 03:50:26;;;;;;;;;;;;;;;22.74;48.31;98912.19;5015906;28;19921;-76
2023/09/20 03:52:52;;;;;;;;;;;;;;;22.67;48.03;98913.16;5032209;28;19980;-79
2023/09/20 03:55:18;;;;;;;;;;;;;;;22.64;48.03;98918.84;5026706;28;19925;-73
2023/09/20 03:57:44;;;;;;;;;;;;;;;22.61;48.07;98916.56;5033672;28;19921;-80
2023/09/20 04:00:16;;;;;;;;;;;;;;;22.53;48.88;98915.69;5020484;28;19924;-72
2023/09/20 04:02:42;;;;;;;;;;;;;;;22.73;48.21;98920.38;5031709;28;19927;-73
2023/09/20 04:05:13;;;;;;;;;;;;;;;22.73;47.42;98923.84;5031700;28;20019;-73
2023/09/20 04:07:39;;;;;;;;;;;;;;;22.78;47.86;98912.63;5025871;28;19932;-70
2023/09/20 04:10:04;;;;;;;;;;;;;;;22.76;47.55;98910.16;5013328;28;19917;-73
2023/09/20 04:12:30;;;;;;;;;;;;;;;22.94;47.21;98911.53;5012190;28;20004;-75
2023/09/20 04:14:55;;;;;;;;;;;;;;;23.08;46.80;98912.50;5011391;28;19961;-76
2023/09/20 04:17:26;;;;;;;;;;;;;;;23.25;46.40;98918.34;5011803;28;19929;-77
2023/09/20 04:19:52;;;;;;;;;;;;;;;23.41;46.21;98911.91;5012807;28;20293;-77
2023/09/20 04:22:18;;;;;;;;;;;;;;;23.54;46.01;98917.28;5012971;28;19921;-77
2023/09/20 04:24:43;;;;;;;;;;;;;;;23.65;45.68;98919.38;5013956;28;19921;-80
2023/09/20 04:27:08;;;;;;;;;;;;;;;23.78;45.33;98920.47;5012486;28;19925;-75
2023/09/20 04:29:35;;;;;;;;;;;;;;;23.87;44.89;98924.66;5015994;28;19928;-74
2023/09/20 04:32:00;;;;;;;;;;;;;;;24.00;45.06;98926.56;5014065;28;19925;-73
2023/09/20 04:34:26;;;;;;;;;;;;;;;24.25;44.42;98929.50;5013715;28;19979;-73
2023/09/20 04:36:52;;;;;;;;;;;;;;;24.49;43.28;98927.31;5016872;28;19917;-80
2023/09/20 04:39:18;;;;;;;;;;;;;;;24.66;42.76;98925.91;5039877;28;20019;-82
2023/09/20 04:41:43;;;;;;;;;;;;;;;25.10;41.67;98926.34;5032268;28;20022;-81
2023/09/20 04:44:08;;;;;;;;;;;;;;;25.24;40.89;98935.16;5016135;28;20421;-82
2023/09/20 04:46:39;;;;;;;;;;;;;;;25.20;40.82;98929.41;5019562;28;19922;-84
2023/09/20 04:49:05;;;;;;;;;;;;;;;25.13;41.03;98927.75;5033416;28;19928;-79
2023/09/20 04:51:30;;;;;;;;;;;;;;;25.03;41.12;98938.88;5032917;28;20004;-82
2023/09/20 04:53:56;;;;;;;;;;;;;;;24.93;41.38;98931.28;5018047;28;19917;-80
2023/09/20 04:56:21;;;;;;;;;;;;;;;24.91;41.73;98922.66;5028873;28;19983;-76
2023/09/20 04:58:47;;;;;;;;;;;;;;;24.97;41.87;98923.66;5027103;28;19921;-76
2023/09/20 05:01:13;;;;;;;;;;;;;;;25.51;40.51;98932.47;5032124;28;20407;-78
2023/09/20 05:03:39;;;;;;;;;;;;;;;25.68;40.17;98931.00;5019093;28;19925;-78
2023/09/20 05:06:05;;;;;;;;;;;;;;;26.05;39.20;98938.50;5012027;28;19943;-79
2023/09/20 05:08:31;;;;;;;;;;;;;;;26.81;37.99;98940.31;5013044;28;19983;-78
2023/09/20 05:10:56;;;;;;;;;;;;;;;26.86;37.68;98947.69;5013079;28;19929;-78
2023/09/20 05:13:22;;;;;;;;;;;;;;;27.02;37.44;98943.66;5012325;28;19924;-77
2023/09/20 05:15:48;;;;;;;;;;;;;;;27.75;36.05;98942.13;5011413;28;20006;-78
2023/09/20 05:18:13;;;;;;;;;;;;;;;28.40;34.63;98946.94;5013034;28;20381;-78
2023/09/20 05:20:39;;;;;;;;;;;;;;;28.90;33.92;98943.09;5013425;28;20333;-78
2023/09/20 05:23:04;;;;;;;;;;;;;;;29.55;33.16;98934.09;5012241;28;19971;-78
2023/09/20 05:25:30;;;;;;;;;;;;;;;30.31;32.10;98942.13;5012871;28;19921;-79
2023/09/20 05:27:56;;;;;;;;;;;;;;;30.75;30.87;98946.13;5011930;28;19923;-79
2023/09/20 05:30:22;;;;;;;;;;;;;;;31.07;30.32;98954.47;4995848;28;20299;-80
2023/09/20 05:32:51;;;;;;;;;;;;;;;31.27;30.53;98948.56;5013331;28;19925;-79
2023/09/20 05:35:17;;;;;;;;;;;;;;;31.44;30.08;98948.56;5011830;28;19917;-78
2023/09/20 05:37:42;;;;;;;;;;;;;;;31.51;29.87;98942.97;5012093;28;19991;-80
2023/09/20 05:40:17;;;;;;;;;;;;;;;31.69;29.78;98944.56;5011814;28;20384;-80
2023/09/20 05:42:42;;;;;;;;;;;;;;;31.87;29.22;98946.97;5012091;28;19936;-78
2023/09/20 05:45:08;;;;;;;;;;;;;;;32.15;29.11;98947.88;5012550;28;20384;-80
2023/09/20 05:47:35;;;;;;;;;;;;;;;32.45;28.63;98950.06;5025839;28;19917;-83
2023/09/20 05:50:10;;;;;;;;;;;;;;;32.56;28.34;98948.28;5019356;28;19972;-84
2023/09/20 05:52:40;;;;;;;;;;;;;;;33.21;27.50;98956.41;5033977;28;19921;-83
2023/09/20 05:55:11;;;;;;;;;;;;;;;33.72;26.77;98953.19;5031703;28;19917;-78
2023/09/20 05:57:36;;;;;;;;;;;;;;;34.00;26.26;98957.38;5031970;28;19971;-80
2023/09/20 06:00:17;;;;;;;;;;;;;;;34.45;25.89;98954.25;5031311;28;20430;-80
2023/09/20 06:02:43;;;;;;;;;;;;;;;34.80;25.24;98956.19;5031152;28;19921;-79
2023/09/20 06:05:10;;;;;;;;;;;;;;;35.08;24.85;98962.94;5015267;28;19957;-79
2023/09/20 06:07:35;;;;;;;;;;;;;;;35.37;24.47;98961.56;5031391;28;19943;-79
2023/09/20 06:10:01;;;;;;;;;;;;;;;35.58;24.23;98956.88;5031794;28;20020;-79
2023/09/20 06:12:29;;;;;;;;;;;;;;;35.79;23.97;98961.19;5030890;28;19925;-78
2023/09/20 06:14:54;;;;;;;;;;;;;;;36.01;24.08;98949.16;5032327;28;19927;-80
2023/09/20 06:17:19;;;;;;;;;;;;;;;36.27;23.62;98954.47;5032139;28;19939;-80
2023/09/20 06:19:46;;;;;;;;;;;;;;;36.49;23.31;98971.16;5031263;28;19927;-81
2023/09/20 06:22:13;;;;;;;;;;;;;;;36.69;22.94;98972.09;5032102;28;19956;-80
2023/09/20 06:24:38;;;;;;;;;;;;;;;36.88;22.76;98970.34;5030678;28;19921;-79
2023/09/20 06:27:04;;;;;;;;;;;;;;;37.12;22.14;98975.84;5030852;28;20458;-78
2023/09/20 06:29:29;;;;;;;;;;;;;;;37.30;21.71;98970.78;5014381;28;19925;-80
2023/09/20 06:31:54;;;;;;;;;;;;;;;37.41;22.21;98972.31;5031129;28;19921;-78
2023/09/20 06:34:22;;;;;;;;;;;;;;;37.53;21.50;98968.34;5013724;28;19921;-79
2023/09/20 06:36:47;;;;;;;;;;;;;;;37.69;21.37;98977.22;5032224;28;20092;-79
2023/09/20 06:39:13;;;;;;;;;;;;;;;37.83;21.02;98972.69;5031507;28;20395;-79
2023/09/20 06:41:41;;;;;;;;;;;;;;;37.97;21.16;98979.03;5031149;28;19917;-79
2023/09/20 06:44:07;;;;;;;;;;;;;;;38.12;20.98;98980.72;5031246;28;19928;-82
2023/09/20 06:46:34;;;;;;;;;;;;;;;38.14;20.88;98975.78;5031177;28;19917;-81
2023/09/20 06:48:59;;;;;;;;;;;;;;;38.36;20.75;98979.88;5030915;28;20390;-81
2023/09/20 06:51:25;;;;;;;;;;;;;;;38.34;20.39;98976.66;5031164;28;19917;-79
2023/09/20 06:53:50;;;;;;;;;;;;;;;38.38;20.49;98983.13;5047115;28;19921;-81
2023/09/20 06:56:17;;;;;;;;;;;;;;;38.48;20.51;98985.72;5033135;28;19917;-79
2023/09/20 06:58:45;;;;;;;;;;;;;;;38.58;20.25;98984.72;5030926;28;20368;-79
2023/09/20 07:01:10;;;;;;;;;;;;;;;38.66;20.13;98986.00;5031064;28;19967;-79
2023/09/20 07:03:36;;;;;;;;;;;;;;;38.76;20.30;98994.00;5032427;28;19965;-79
2023/09/20 07:06:02;;;;;;;;;;;;;;;38.83;20.20;98991.72;5034709;28;19925;-79
2023/09/20 07:08:34;;;;;;;;;;;;;;;38.95;19.96;98985.81;5034257;28;19921;-79
2023/09/20 07:10:59;;;;;;;;;;;;;;;39.02;19.68;98991.69;5034985;28;19921;-81
2023/09/20 07:13:26;;;;;;;;;;;;;;;39.05;19.60;98993.00;5034574;28;19917;-80
2023/09/20 07:15:54;;;;;;;;;;;;;;;39.14;19.72;98993.16;5034937;28;19988;-80
2023/09/20 07:18:20;;;;;;;;;;;;;;;39.22;19.54;98992.44;5034812;28;19917;-81
2023/09/20 07:20:45;;;;;;;;;;;;;;;39.32;19.42;98994.22;5017920;28;19921;-79
2023/09/20 07:23:11;;;;;;;;;;;;;;;39.38;19.46;98999.25;5035809;28;20342;-80
2023/09/20 07:25:37;;;;;;;;;;;;;;;39.39;19.31;99006.31;5017629;28;19921;-79
2023/09/20 07:28:04;;;;;;;;;;;;;;;39.47;19.14;99004.81;5034539;28;19917;-78
2023/09/20 07:30:34;;;;;;;;;;;;;;;39.50;19.16;99003.41;5017575;28;19932;-78
2023/09/20 07:33:02;;;;;;;;;;;;;;;39.52;19.13;99004.78;5034351;28;19948;-79
2023/09/20 07:35:28;;;;;;;;;;;;;;;39.51;19.29;99010.50;5033678;28;20400;-80
2023/09/20 07:37:57;;;;;;;;;;;;;;;39.56;18.95;99010.44;5017256;28;19917;-79
2023/09/20 07:40:26;;;;;;;;;;;;;;;39.65;18.95;99018.72;5035238;28;20012;-82
2023/09/20 07:42:52;;;;;;;;;;;;;;;39.71;19.01;99010.13;5017976;28;19917;-79
2023/09/20 07:45:18;;;;;;;;;;;;;;;39.76;18.98;99011.97;5016676;28;19929;-80
2023/09/20 07:47:43;;;;;;;;;;;;;;;39.84;18.90;99013.16;5028616;28;19923;-81
2023/09/20 07:50:11;;;;;;;;;;;;;;;39.87;18.76;99005.16;5033843;28;19921;-82
2023/09/20 07:52:37;;;;;;;;;;;;;;;39.94;18.88;98999.28;5033240;28;20020;-80
2023/09/20 07:55:04;;;;;;;;;;;;;;;40.02;18.84;99001.31;5019311;28;20440;-76
2023/09/20 07:57:30;;;;;;;;;;;;;;;40.11;18.49;99002.22;5014756;28;19924;-78
2023/09/20 07:59:56;;;;;;;;;;;;;;;40.18;18.62;99001.78;5014896;28;19925;-78
2023/09/20 08:02:21;;;;;;;;;;;;;;;40.28;18.36;98998.00;5014314;28;20369;-79
2023/09/20 08:04:47;;;;;;;;;;;;;;;40.31;18.61;98997.41;5013727;28;20013;-80
2023/09/20 08:07:13;;;;;;;;;;;;;;;40.35;18.23;98998.41;5031909;28;19902;-83
2023/09/20 08:09:38;;;;;;;;;;;;;;;40.38;18.31;98997.81;5036427;28;19929;-81
2023/09/20 08:12:03;;;;;;;;;;;;;;;40.44;18.44;99001.25;5033414;28;19918;-81
2023/09/20 08:14:30;;;;;;;;;;;;;;;40.53;18.36;99004.06;5032904;28;19993;-81
2023/09/20 08:19:39;;;;;;;;;;;;;;;40.61;18.22;98995.94;5018790;28;19988;-84
2023/09/20 08:22:05;;;;;;;;;;;;;;;40.62;18.18;98992.06;5020432;28;19925;-81
2023/09/20 09:00:31;;;;;;;;;;;;;;;40.85;17.74;98973.75;5032528;28;19928;-80
2023/09/20 09:03:05;;;;;;;;;;;;;;;40.81;17.54;98978.19;5032061;28;19924;-81
2023/09/20 09:05:30;;;;;;;;;;;;;;;40.70;17.52;98979.56;5031686;28;19921;-81
2023/09/20 09:07:57;;;;;;;;;;;;;;;40.66;18.12;98973.09;5031949;28;19924;-78
2023/09/20 09:10:22;;;;;;;;;;;;;;;40.53;17.70;98979.44;5031971;28;19920;-80
2023/09/20 09:12:48;;;;;;;;;;;;;;;40.47;17.97;98970.53;5031610;28;19917;-79
2023/09/20 09:15:16;;;;;;;;;;;;;;;40.50;18.24;98957.06;5032692;28;19932;-81
2023/09/20 09:17:44;;;;;;;;;;;;;;;40.42;18.04;98966.03;5031588;28;19956;-78
2023/09/20 09:20:10;;;;;;;;;;;;;;;40.32;18.00;98966.22;5031750;28;19921;-79
2023/09/20 09:22:36;;;;;;;;;;;;;;;40.23;18.20;98968.06;5031614;28;19977;-80
2023/09/20 09:25:02;;;;;;;;;;;;;;;40.13;18.31;98964.44;5014591;28;19928;-81
2023/09/20 09:27:30;;;;;;;;;;;;;;;40.10;18.20;98964.25;5031958;28;19921;-81
2023/09/20 09:29:56;;;;;;;;;;;;;;;40.01;18.35;98961.47;5030646;28;19957;-83
2023/09/20 09:32:24;;;;;;;;;;;;;;;39.93;18.67;98959.41;5031409;28;19925;-81
2023/09/20 09:34:49;;;;;;;;;;;;;;;39.84;18.62;98955.75;5032369;28;19917;-80
2023/09/20 09:37:15;;;;;;;;;;;;;;;39.78;18.91;98953.16;5031432;28;20339;-80
2023/09/20 09:39:42;;;;;;;;;;;;;;;39.73;19.01;98953.25;5031183;28;19924;-80
2023/09/20 09:42:09;;;;;;;;;;;;;;;39.68;19.15;98942.44;5032148;28;19928;-79
2023/09/20 09:44:52;;;;;;;;;;;;;;;39.62;19.18;98939.00;5030993;28;19917;-80
2023/09/20 09:47:17;;;;;;;;;;;;;;;39.54;19.09;98938.91;5032992;28;19992;-81
2023/09/20 09:49:43;;;;;;;;;;;;;;;39.48;19.24;98929.19;5014711;28;20309;-81
2023/09/20 09:52:09;;;;;;;;;;;;;;;39.36;19.44;98941.44;5032553;28;20019;-80
2023/09/20 09:54:35;;;;;;;;;;;;;;;39.25;19.63;98942.72;5014502;28;19923;-80
2023/09/20 09:57:00;;;;;;;;;;;;;;;39.13;19.60;98932.28;5031261;28;19928;-83
2023/09/20 09:59:26;;;;;;;;;;;;;;;39.06;19.68;98931.84;5030518;28;19925;-80
2023/09/20 10:01:55;;;;;;;;;;;;;;;38.99;19.85;98929.50;5031118;28;19921;-80
2023/09/20 10:04:20;;;;;;;;;;;;;;;38.90;19.55;98934.03;5015057;28;20316;-80
2023/09/20 10:07:02;;;;;;;;;;;;;;;38.77;19.97;98921.19;5030844;28;19928;-79
2023/09/20 10:09:30;;;;;;;;;;;;;;;38.61;20.34;98920.63;5030524;28;20393;-81
2023/09/20 10:11:56;;;;;;;;;;;;;;;38.51;20.48;98919.66;5031882;28;19921;-79
2023/09/20 10:14:22;;;;;;;;;;;;;;;38.42;20.65;98917.94;5030815;28;19967;-80
2023/09/20 10:16:48;;;;;;;;;;;;;;;38.33;20.30;98909.59;5030859;28;19992;-80
2023/09/20 10:19:14;;;;;;;;;;;;;;;38.23;20.39;98907.84;5014654;28;19921;-80
2023/09/20 10:21:42;;;;;;;;;;;;;;;38.12;20.82;98907.16;5031025;28;20289;-79
2023/09/20 10:24:14;;;;;;;;;;;;;;;38.04;20.56;98907.03;5015177;28;20003;-80
2023/09/20 10:26:39;;;;;;;;;;;;;;;37.83;20.12;98896.41;5030725;28;19921;-80
2023/09/20 10:29:24;;;;;;;;;;;;;;;37.64;20.81;98902.59;5014315;28;19982;-80
2023/09/20 10:31:49;;;;;;;;;;;;;;;37.49;21.03;98891.91;5031026;28;19921;-80
2023/09/20 10:34:14;;;;;;;;;;;;;;;37.32;20.93;98888.84;5014401;28;19940;-79
2023/09/20 10:36:51;;;;;;;;;;;;;;;37.20;21.34;98889.25;5030121;28;19933;-79
2023/09/20 10:39:17;;;;;;;;;;;;;;;37.05;21.56;98884.75;5035120;28;19985;-80
2023/09/20 10:41:42;;;;;;;;;;;;;;;36.93;21.28;98890.59;5034554;28;19928;-79
2023/09/20 10:44:09;;;;;;;;;;;;;;;36.80;21.83;98886.66;5034825;28;19921;-84
2023/09/20 10:46:35;;;;;;;;;;;;;;;36.64;21.86;98891.41;5034023;28;19948;-79
2023/09/20 10:49:00;;;;;;;;;;;;;;;36.52;21.91;98888.22;5018124;28;20388;-80
2023/09/20 10:51:48;;;;;;;;;;;;;;;36.36;21.81;98876.69;5034016;28;20015;-79
2023/09/20 10:54:22;;;;;;;;;;;;;;;36.18;22.10;98883.56;5034377;28;19921;-82
2023/09/20 10:56:53;;;;;;;;;;;;;;;36.07;22.16;98874.66;5034038;28;20518;-79
2023/09/20 10:59:25;;;;;;;;;;;;;;;36.03;22.42;98873.63;5033994;28;19924;-79
2023/09/20 11:01:50;;;;;;;;;;;;;;;35.93;22.47;98879.09;5035119;28;20007;-81
2023/09/20 11:04:16;;;;;;;;;;;;;;;35.86;22.42;98872.06;5036336;28;19956;-78
2023/09/20 11:06:44;;;;;;;;;;;;;;;35.81;22.68;98869.41;5033741;28;20396;-79
2023/09/20 11:09:11;;;;;;;;;;;;;;;35.76;22.81;98866.72;5035418;28;20020;-78
2023/09/20 11:11:37;;;;;;;;;;;;;;;35.70;23.07;98862.38;5033832;28;19921;-81
2023/09/20 11:14:03;;;;;;;;;;;;;;;35.61;23.12;98859.41;5034540;28;19924;-81
2023/09/20 11:16:28;;;;;;;;;;;;;;;35.55;23.20;98857.00;5033655;28;20016;-79
2023/09/20 11:18:56;;;;;;;;;;;;;;;35.47;23.25;98856.50;5034704;28;19964;-79
2023/09/20 11:21:22;;;;;;;;;;;;;;;35.39;23.36;98859.78;5034549;28;20316;-78
2023/09/20 11:23:48;;;;;;;;;;;;;;;35.30;23.73;98859.56;5033942;28;20383;-79
2023/09/20 11:26:18;;;;;;;;;;;;;;;35.12;23.30;98854.69;5033680;28;20376;-79
2023/09/20 11:28:43;;;;;;;;;;;;;;;35.03;23.11;98859.06;5034831;28;19936;-79
2023/09/20 11:31:21;;;;;;;;;;;;;;;34.96;23.77;98859.34;5016969;28;19925;-81
2023/09/20 11:33:46;;;;;;;;;;;;;;;34.85;23.53;98863.19;5033670;28;20334;-79
2023/09/20 11:36:15;;;;;;;;;;;;;;;34.75;23.48;98858.59;5033550;28;19925;-79
2023/09/20 11:38:40;;;;;;;;;;;;;;;34.71;23.30;98852.88;5035802;28;19917;-81
2023/09/20 11:41:09;;;;;;;;;;;;;;;34.70;23.39;98851.25;5018182;28;19943;-79
2023/09/20 11:43:34;;;;;;;;;;;;;;;34.69;23.59;98854.22;5034065;28;19917;-78
2023/09/20 11:45:59;;;;;;;;;;;;;;;34.69;23.88;98846.91;5034409;28;20289;-78
2023/09/20 11:48:25;;;;;;;;;;;;;;;34.65;23.91;98847.72;5035282;28;20380;-78
2023/09/20 11:50:50;;;;;;;;;;;;;;;34.58;23.60;98837.97;5033340;28;19921;-79
2023/09/20 11:53:17;;;;;;;;;;;;;;;34.47;24.01;98838.25;5033399;28;19917;-79
2023/09/20 11:55:43;;;;;;;;;;;;;;;34.43;23.59;98835.28;5033541;28;19944;-79
2023/09/20 11:58:14;;;;;;;;;;;;;;;34.34;23.84;98817.94;5034345;28;20278;-79
2023/09/20 12:00:42;;;;;;;;;;;;;;;34.28;24.08;98808.19;5017333;28;20333;-80
2023/09/20 12:03:08;;;;;;;;;;;;;;;34.24;24.00;98818.75;5016974;28;20459;-79
2023/09/20 12:05:34;;;;;;;;;;;;;;;34.20;24.21;98817.63;5033317;28;19948;-78
2023/09/20 12:07:59;;;;;;;;;;;;;;;34.17;23.92;98818.16;5033337;28;19918;-79
2023/09/20 12:10:26;;;;;;;;;;;;;;;34.15;24.51;98813.03;5032930;28;20008;-79
2023/09/20 12:12:51;;;;;;;;;;;;;;;34.14;24.55;98802.47;5033213;28;20316;-81
2023/09/20 12:15:17;;;;;;;;;;;;;;;34.04;24.36;98800.56;5016085;28;19923;-80
2023/09/20 12:17:42;;;;;;;;;;;;;;;34.03;24.65;98807.06;5033315;28;20385;-79
2023/09/20 12:20:08;;;;;;;;;;;;;;;33.96;24.59;98807.31;5032703;28;19928;-79
2023/09/20 12:22:34;;;;;;;;;;;;;;;33.89;24.49;98802.19;5033195;28;19917;-80
2023/09/20 12:24:59;;;;;;;;;;;;;;;33.82;24.54;98798.09;5033264;28;20012;-79
2023/09/20 12:27:24;;;;;;;;;;;;;;;33.78;24.19;98792.41;5033438;28;19952;-80
2023/09/20 12:29:50;;;;;;;;;;;;;;;33.76;24.25;98791.84;5034383;28;20332;-79
2023/09/20 12:32:15;;;;;;;;;;;;;;;33.70;24.54;98785.63;5033756;28;19921;-79
2023/09/20 12:34:41;;;;;;;;;;;;;;;33.63;24.56;98784.22;5032929;28;20369;-79
2023/09/20 12:37:06;;;;;;;;;;;;;;;33.56;24.53;98779.09;5032779;28;19971;-79
2023/09/20 12:39:32;;;;;;;;;;;;;;;33.45;24.54;98778.25;5016025;28;19928;-79
2023/09/20 12:41:57;;;;;;;;;;;;;;;33.32;24.77;98776.84;5032161;28;19932;-79
2023/09/20 12:44:22;;;;;;;;;;;;;;;33.15;24.67;98784.34;5016252;28;19917;-79
2023/09/20 12:46:48;;;;;;;;;;;;;;;33.04;24.90;98780.75;5012510;28;19929;-81
2023/09/20 12:49:13;;;;;;;;;;;;;;;32.94;25.07;98773.44;5012416;28;19948;-78
2023/09/20 12:51:38;;;;;;;;;;;;;;;32.97;25.10;98769.38;5013227;28;19925;-78
2023/09/20 12:54:06;;;;;;;;;;;;;;;32.95;25.36;98768.81;5012901;28;19924;-78
2023/09/20 12:56:31;;;;;;;;;;;;;;;32.89;25.48;98773.38;5012458;28;20000;-79
2023/09/20 12:58:57;;;;;;;;;;;;;;;32.89;25.83;98762.56;5012461;28;19953;-83
2023/09/20 13:01:22;;;;;;;;;;;;;;;32.96;25.63;98771.25;5012396;28;19921;-80
2023/09/20 13:03:47;;;;;;;;;;;;;;;33.05;25.78;98776.16;4996151;28;19925;-79
2023/09/20 13:06:14;;;;;;;;;;;;;;;33.08;25.89;98759.41;5013839;28;19953;-79
2023/09/20 13:08:39;;;;;;;;;;;;;;;33.15;25.67;98757.28;5012205;28;19965;-79
2023/09/20 13:11:05;;;;;;;;;;;;;;;33.19;25.82;98761.09;5012687;28;19959;-80
2023/09/20 13:13:31;;;;;;;;;;;;;;;33.20;24.94;98760.03;5012116;28;19922;-82
2023/09/20 13:15:56;;;;;;;;;;;;;;;33.24;25.04;98758.44;5013333;28;19918;-80
2023/09/20 13:18:22;;;;;;;;;;;;;;;33.25;24.75;98753.84;5013484;28;19922;-80
2023/09/20 13:20:47;;;;;;;;;;;;;;;33.26;24.51;98747.34;5012324;28;20032;-78
2023/09/20 13:23:13;;;;;;;;;;;;;;;33.28;24.66;98743.28;5013664;28;19925;-80